KALO/ALO METAR and TAF weather

Enter ICAO airport designator
Station Type Date Time Source
KALO METAR 2021/04/14 19:54 UTC NOAA

KALO 141954Z 33015G26KT 10SM BKN044 OVC055 09/M01 A3012 RMK AO2 PK WND 33026/1950 SLP207 T00941011


Station Type Date Time Source
KALO Decoded METAR 2021/04/14 19:54 UTC NOAA

WATERLOO MUNICIPAL AIRPORT, IA, United States (KALO) 42-33N 92-24W 264M
Apr 14, 2021 - 03:54 PM EDT / 2021.04.14 1954 UTC
Wind: from the NNW (330 degrees) at 17 MPH (15 KT) gusting to 30 MPH (26 KT):0
Visibility: 10 mile(s):0
Sky conditions: overcast
Temperature: 48.9 F (9.4 C)
Dew Point: 30.0 F (-1.1 C)
Relative Humidity: 47%
Pressure (altimeter): 30.12 in. Hg (1019 hPa)
ob: KALO 141954Z 33015G26KT 10SM BKN044 OVC055 09/M01 A3012 RMK AO2 PK WND 33026/1950 SLP207 T00941011
cycle: 20

Station Type Date Time Source
KALO TAF 2021/04/14 18:40 UTC NOAA

TAF KALO 141738Z 1418/1518 29012G20KT P6SM OVC035
FM150200 32013KT P6SM BKN025
FM150500 34014KT P6SM BKN015
FM150900 33014KT P6SM BKN009
FM151500 34012KT P6SM BKN015

Example: see airport list